Time;durP1;ratioP1;P1;durP2;ratioP2;P2;SDS_P1;SDS_P2;PMS_P1;PMS_P2;Temp;Humidity;BMP_temperature;BMP_pressure;BME280_temperature;BME280_humidity;BME280_pressure;Samples;Min_cycle;Max_cycle;Signal;HPM_P1;HPM_P2
2022/04/25 00:02:07;;;;;;;22.05;15.05;;;;;;;11.80;100.00;98852.03;5049962;28;20051;-54
2022/04/25 00:04:33;;;;;;;23.58;14.98;;;;;;;11.80;100.00;98848.59;5050227;28;20064;-52
2022/04/25 00:06:59;;;;;;;23.27;14.57;;;;;;;11.75;100.00;98838.41;5050136;28;20044;-52
2022/04/25 00:09:26;;;;;;;22.05;14.57;;;;;;;11.81;100.00;98850.28;5057350;28;20064;-48
2022/04/25 00:11:51;;;;;;;20.95;14.18;;;;;;;11.84;100.00;98848.34;5049892;28;20108;-53
2022/04/25 00:14:17;;;;;;;21.63;14.48;;;;;;;11.84;100.00;98847.50;5067534;28;20036;-51
2022/04/25 00:16:43;;;;;;;24.13;14.43;;;;;;;11.76;100.00;98832.28;5062786;28;20047;-53
2022/04/25 00:19:09;;;;;;;19.33;12.95;;;;;;;11.85;100.00;98843.97;5049796;28;20040;-51
2022/04/25 00:21:35;;;;;;;22.27;14.70;;;;;;;11.84;100.00;98852.69;5051160;28;20152;-53
2022/04/25 00:24:00;;;;;;;23.27;14.43;;;;;;;11.80;100.00;98849.44;5080641;28;20777;-51
2022/04/25 00:26:26;;;;;;;22.33;13.82;;;;;;;11.79;100.00;98842.53;5052385;28;20392;-51
2022/04/25 00:28:52;;;;;;;21.30;13.68;;;;;;;11.82;100.00;98849.34;5050875;28;20033;-51
2022/04/25 00:31:17;;;;;;;20.33;12.10;;;;;;;11.83;100.00;98841.44;5049992;28;20045;-51
2022/04/25 00:33:43;;;;;;;18.67;12.27;;;;;;;11.84;100.00;98842.28;5050707;28;20040;-51
2022/04/25 00:36:09;;;;;;;16.05;10.70;;;;;;;11.77;99.46;98846.16;5049416;28;20040;-57
2022/04/25 00:38:35;;;;;;;18.65;10.90;;;;;;;11.78;99.01;98851.25;5035642;28;20082;-56
2022/04/25 00:41:01;;;;;;;21.13;12.43;;;;;;;11.80;99.47;98844.22;5059070;28;20075;-56
2022/04/25 00:43:26;;;;;;;17.48;12.13;;;;;;;11.82;99.11;98846.75;5065006;28;20128;-51
2022/04/25 00:45:52;;;;;;;19.42;12.57;;;;;;;11.83;99.26;98851.00;5077602;28;20191;-53
2022/04/25 00:48:18;;;;;;;17.45;11.48;;;;;;;11.75;98.17;98825.38;5054939;28;20049;-53
2022/04/25 00:50:45;;;;;;;17.33;11.27;;;;;;;11.88;97.89;98854.22;5053878;28;20043;-52
2022/04/25 00:53:10;;;;;;;21.02;12.05;;;;;;;11.84;98.16;98844.88;5060116;28;20048;-54
2022/04/25 00:55:36;;;;;;;18.20;11.85;;;;;;;11.77;97.83;98839.19;5053759;28;20527;-53
2022/04/25 00:58:02;;;;;;;17.77;11.07;;;;;;;11.75;97.92;98845.38;5058886;28;20041;-52
2022/04/25 01:00:28;;;;;;;18.17;11.18;;;;;;;11.71;98.07;98833.41;5052127;28;20044;-55
2022/04/25 01:02:56;;;;;;;20.10;12.30;;;;;;;11.68;97.96;98847.41;5061832;28;20048;-54
2022/04/25 01:05:22;;;;;;;18.58;11.80;;;;;;;11.70;98.37;98845.59;5074634;28;20053;-53
2022/04/25 01:07:48;;;;;;;18.35;11.63;;;;;;;11.74;97.96;98861.91;5049341;28;20424;-54
2022/04/25 01:10:14;;;;;;;16.73;10.88;;;;;;;11.73;97.84;98853.25;5048997;28;20108;-52
2022/04/25 01:12:39;;;;;;;20.15;10.77;;;;;;;11.66;97.60;98851.88;5050925;28;20049;-52
2022/04/25 01:15:06;;;;;;;14.07;8.90;;;;;;;11.61;97.96;98856.50;5048990;28;20040;-55
2022/04/25 01:17:32;;;;;;;15.88;10.73;;;;;;;11.60;98.48;98859.16;5055962;28;20044;-53
2022/04/25 01:19:59;;;;;;;15.55;9.10;;;;;;;11.54;98.75;98854.28;5053871;28;20040;-54
2022/04/25 01:22:30;;;;;;;16.38;10.88;;;;;;;11.48;99.27;98852.81;5048694;28;20043;-54
2022/04/25 01:27:40;;;;;;;18.33;11.15;;;;;;;11.40;98.85;98849.78;5041983;28;20049;-49
2022/04/25 01:30:09;;;;;;;15.95;10.43;;;;;;;11.43;99.06;98858.25;5065754;28;20219;-54
2022/04/25 01:32:36;;;;;;;16.65;10.00;;;;;;;11.46;98.85;98859.88;5044360;28;20118;-52
2022/04/25 01:35:04;;;;;;;16.73;10.20;;;;;;;11.37;99.12;98845.56;5049197;28;20040;-56
2022/04/25 01:37:31;;;;;;;16.90;9.65;;;;;;;11.45;99.58;98851.22;5052089;28;20083;-53
2022/04/25 01:39:57;;;;;;;14.15;9.68;;;;;;;11.45;98.93;98846.03;5062361;28;20095;-49
2022/04/25 01:42:23;;;;;;;17.17;10.07;;;;;;;11.32;99.37;98825.88;5056579;28;20045;-54
2022/04/25 01:44:49;;;;;;;15.85;10.05;;;;;;;11.43;99.48;98842.66;5049644;28;20049;-57
2022/04/25 01:47:15;;;;;;;18.33;10.15;;;;;;;11.45;98.93;98848.63;5057084;28;20060;-55
2022/04/25 01:49:41;;;;;;;15.45;9.43;;;;;;;11.39;98.89;98841.13;5048885;28;20132;-52
2022/04/25 01:52:19;;;;;;;20.15;9.07;;;;;;;11.39;99.05;98848.09;5054966;28;20135;-53
2022/04/25 01:54:45;;;;;;;15.57;8.98;;;;;;;11.42;98.23;98847.91;5058208;28;20037;-53
2022/04/25 01:57:11;;;;;;;14.93;9.18;;;;;;;11.41;97.19;98841.03;5068283;28;20048;-52
2022/04/25 01:59:36;;;;;;;13.43;8.60;;;;;;;11.38;97.36;98847.25;5066392;28;20048;-50
2022/04/25 02:02:03;;;;;;;15.25;8.10;;;;;;;11.33;97.38;98844.03;5052103;28;20455;-55
2022/04/25 02:04:29;;;;;;;12.68;8.30;;;;;;;11.13;97.33;98820.78;5053968;28;20091;-55
2022/04/25 02:06:56;;;;;;;12.23;7.43;;;;;;;11.28;97.40;98846.03;5049484;28;20084;-52
2022/04/25 02:09:22;;;;;;;12.80;7.72;;;;;;;11.27;97.04;98853.91;5048279;28;20566;-52
2022/04/25 02:11:48;;;;;;;13.88;8.20;;;;;;;11.22;96.07;98851.53;5049642;28;20497;-52
2022/04/25 02:14:14;;;;;;;12.73;7.75;;;;;;;11.11;96.34;98839.97;5052356;28;20036;-55
2022/04/25 02:16:39;;;;;;;16.00;8.18;;;;;;;11.21;96.03;98852.44;5049087;28;20041;-53
2022/04/25 02:19:05;;;;;;;10.52;6.80;;;;;;;11.21;94.90;98852.44;5049407;28;20071;-53
2022/04/25 02:21:31;;;;;;;10.80;7.18;;;;;;;11.23;94.04;98849.78;5047501;28;20421;-56
2022/04/25 02:23:57;;;;;;;12.43;7.43;;;;;;;11.18;94.15;98850.03;5048036;28;20128;-51
2022/04/25 02:26:23;;;;;;;15.15;7.32;;;;;;;11.08;94.88;98843.59;5048746;28;20588;-53
2022/04/25 02:28:49;;;;;;;11.55;7.38;;;;;;;11.19;95.01;98851.72;5056287;28;20119;-51
2022/04/25 02:31:15;;;;;;;11.77;7.03;;;;;;;11.29;94.13;98857.28;5054999;28;20045;-56
2022/04/25 02:33:41;;;;;;;10.73;6.30;;;;;;;11.24;92.40;98865.31;5055914;28;20072;-53
2022/04/25 02:36:08;;;;;;;11.48;7.07;;;;;;;11.20;92.38;98868.16;5046475;28;20823;-50
2022/04/25 02:38:35;;;;;;;10.32;6.47;;;;;;;11.12;91.96;98862.47;5049414;28;20098;-53
2022/04/25 02:41:04;;;;;;;10.35;6.60;;;;;;;11.07;92.58;98860.09;5057653;28;20048;-54
2022/04/25 02:43:48;;;;;;;9.30;6.05;;;;;;;10.94;92.68;98836.44;5050402;28;20040;-53
2022/04/25 02:46:15;;;;;;;12.32;5.90;;;;;;;11.11;92.85;98858.19;5051467;28;20041;-51
2022/04/25 02:48:43;;;;;;;9.18;5.90;;;;;;;11.19;91.94;98866.47;5049682;28;20500;-52
2022/04/25 02:51:09;;;;;;;12.15;6.45;;;;;;;11.21;91.77;98865.47;5051020;28;20053;-54
2022/04/25 02:53:35;;;;;;;11.57;6.45;;;;;;;11.25;91.82;98866.16;5048201;28;20029;-52
2022/04/25 02:56:02;;;;;;;8.88;5.95;;;;;;;11.20;91.77;98868.16;5042988;28;20072;-52
2022/04/25 02:58:30;;;;;;;12.18;7.25;;;;;;;11.24;91.92;98878.34;5048269;28;20040;-52
2022/04/25 03:00:57;;;;;;;12.75;7.22;;;;;;;11.20;91.68;98876.78;5050112;28;20058;-54
2022/04/25 03:03:24;;;;;;;10.45;6.50;;;;;;;11.27;91.85;98879.94;5051217;28;20406;-52
2022/04/25 03:05:50;;;;;;;16.42;7.90;;;;;;;11.27;91.53;98882.53;5051201;28;20059;-52
2022/04/25 03:08:18;;;;;;;11.18;7.20;;;;;;;11.25;90.57;98880.00;5058263;28;20139;-54
2022/04/25 03:10:48;;;;;;;13.45;6.65;;;;;;;11.27;90.71;98888.56;5058650;28;20512;-51
2022/04/25 03:13:16;;;;;;;12.68;6.38;;;;;;;11.23;89.76;98881.00;5049935;28;20040;-56
2022/04/25 03:15:43;;;;;;;11.20;6.65;;;;;;;11.18;89.43;98868.22;5051089;28;20866;-50
2022/04/25 03:18:11;;;;;;;9.75;6.15;;;;;;;11.16;88.97;98879.63;5050301;28;20070;-54
2022/04/25 03:20:38;;;;;;;7.88;4.75;;;;;;;11.06;87.15;98876.63;5056185;28;20127;-54
2022/04/25 03:23:07;;;;;;;10.13;5.18;;;;;;;10.92;87.52;98871.28;5070780;28;20036;-51
2022/04/25 03:25:33;;;;;;;8.00;4.50;;;;;;;10.93;88.09;98875.56;5059018;28;20068;-54
2022/04/25 03:27:59;;;;;;;10.20;6.03;;;;;;;10.95;88.15;98876.31;5061437;28;20356;-52
2022/04/25 03:30:26;;;;;;;10.00;6.32;;;;;;;10.80;87.74;98851.06;5063936;28;20036;-51
2022/04/25 03:32:52;;;;;;;9.98;6.07;;;;;;;11.08;87.71;98884.38;5057922;28;20049;-52
2022/04/25 03:35:19;;;;;;;9.65;6.13;;;;;;;10.94;86.84;98862.47;5068382;28;20047;-51
2022/04/25 03:37:47;;;;;;;9.82;6.22;;;;;;;10.88;87.76;98877.53;5048238;28;20501;-51
2022/04/25 03:40:13;;;;;;;10.85;6.60;;;;;;;10.74;88.50;98879.94;5054835;28;20462;-52
2022/04/25 03:42:40;;;;;;;11.40;6.18;;;;;;;10.66;88.97;98876.88;5035116;28;20102;-53
2022/04/25 03:45:09;;;;;;;11.68;6.00;;;;;;;10.62;89.02;98886.59;5050392;28;20657;-53
2022/04/25 03:47:36;;;;;;;11.07;5.85;;;;;;;10.58;88.00;98880.66;5051240;28;20875;-53
2022/04/25 03:50:03;;;;;;;7.53;4.53;;;;;;;10.41;87.25;98848.63;5063131;28;20081;-53
2022/04/25 03:52:29;;;;;;;10.45;5.22;;;;;;;10.56;87.15;98871.28;5064884;28;20068;-56
2022/04/25 03:57:39;;;;;;;6.80;3.88;;;;;;;10.63;84.18;98878.69;5053314;28;20068;-55
2022/04/25 04:00:06;;;;;;;7.05;4.05;;;;;;;10.68;83.01;98875.88;5059582;28;20052;-54
2022/04/25 04:02:37;;;;;;;4.53;3.13;;;;;;;10.70;82.36;98876.66;5051482;28;20040;-53
2022/04/25 04:05:05;;;;;;;5.50;3.75;;;;;;;10.71;81.60;98885.31;5058448;28;20059;-54
2022/04/25 04:07:32;;;;;;;7.13;4.43;;;;;;;10.76;81.29;98873.78;5059501;28;20057;-51
2022/04/25 04:09:58;;;;;;;7.25;4.28;;;;;;;10.79;79.94;98864.97;5056475;28;20047;-52
2022/04/25 04:12:25;;;;;;;7.95;4.93;;;;;;;10.85;80.20;98868.13;5062747;28;20398;-55
2022/04/25 04:14:51;;;;;;;8.93;5.43;;;;;;;10.99;80.44;98865.69;5040793;28;20033;-53
2022/04/25 04:17:17;;;;;;;6.75;4.50;;;;;;;11.10;79.79;98856.50;5040597;28;20152;-53
2022/04/25 04:19:44;;;;;;;8.27;4.95;;;;;;;11.22;79.26;98854.16;5049761;28;20122;-57
2022/04/25 04:22:10;;;;;;;9.07;5.35;;;;;;;11.15;79.28;98825.94;5032078;28;20045;-57
2022/04/25 04:24:36;;;;;;;7.55;4.75;;;;;;;11.45;78.12;98845.19;5050422;28;20420;-56
2022/04/25 04:27:02;;;;;;;8.60;5.40;;;;;;;11.47;77.62;98840.72;5050162;28;20110;-56
2022/04/25 04:29:31;;;;;;;7.95;4.78;;;;;;;11.69;77.20;98853.47;5065686;28;20102;-55
2022/04/25 04:31:58;;;;;;;9.70;5.20;;;;;;;11.82;76.04;98851.97;5049971;28;20041;-54
2022/04/25 04:34:24;;;;;;;6.15;4.45;;;;;;;11.86;74.90;98841.28;5049749;28;20467;-53
2022/04/25 04:36:51;;;;;;;7.63;4.82;;;;;;;11.90;74.72;98841.97;5049965;28;20044;-58
2022/04/25 04:39:18;;;;;;;8.07;4.57;;;;;;;11.93;73.79;98847.03;5047990;28;20049;-55
2022/04/25 04:41:44;;;;;;;9.35;4.88;;;;;;;11.97;73.85;98843.34;5049688;28;20049;-57
2022/04/25 04:44:10;;;;;;;8.52;4.80;;;;;;;11.88;73.32;98812.53;5049818;28;20543;-54
2022/04/25 04:46:36;;;;;;;7.90;5.13;;;;;;;12.00;73.76;98824.06;5048840;28;21300;-55
2022/04/25 04:49:02;;;;;;;8.68;5.40;;;;;;;12.06;73.52;98842.81;5048138;28;20055;-55
2022/04/25 04:51:27;;;;;;;6.88;4.57;;;;;;;12.02;74.52;98838.72;5032001;28;20535;-53
2022/04/25 04:53:53;;;;;;;9.90;5.25;;;;;;;11.98;74.52;98844.19;5049446;28;20056;-57
2022/04/25 04:56:19;;;;;;;11.43;5.40;;;;;;;11.87;75.25;98856.00;5038914;28;20041;-55
2022/04/25 04:58:45;;;;;;;10.13;5.90;;;;;;;11.94;75.73;98859.09;5054547;28;20055;-55
2022/04/25 05:01:11;;;;;;;4.95;3.00;;;;;;;11.96;75.37;98853.81;5048774;28;20052;-56
2022/04/25 05:03:41;;;;;;;12.35;6.25;;;;;;;12.10;75.40;98857.38;5048616;28;20106;-54
2022/04/25 05:06:07;;;;;;;9.07;6.63;;;;;;;12.22;75.03;98869.75;5050153;28;20168;-55
2022/04/25 05:08:33;;;;;;;11.43;5.85;;;;;;;12.17;74.41;98861.34;5054746;28;20075;-54
2022/04/25 05:10:59;;;;;;;9.38;5.72;;;;;;;12.24;74.30;98870.50;5049769;28;20041;-53
2022/04/25 05:13:28;;;;;;;13.57;5.40;;;;;;;12.17;74.44;98876.97;5059660;28;20127;-51
2022/04/25 05:15:54;;;;;;;10.95;5.78;;;;;;;12.19;74.56;98872.53;5063980;28;20045;-52
2022/04/25 05:18:20;;;;;;;9.70;6.15;;;;;;;12.35;74.66;98880.34;5047568;28;20123;-53
2022/04/25 05:20:46;;;;;;;6.93;5.05;;;;;;;12.33;74.58;98879.59;5047762;28;20095;-54
2022/04/25 05:23:11;;;;;;;9.10;6.78;;;;;;;12.39;74.92;98878.41;5047931;28;20037;-55
2022/04/25 05:25:40;;;;;;;10.85;6.97;;;;;;;12.57;74.41;98883.44;5047032;28;20539;-53
2022/04/25 05:28:06;;;;;;;11.50;6.15;;;;;;;12.75;73.00;98884.22;5030683;28;20076;-55
2022/04/25 05:30:32;;;;;;;10.05;6.32;;;;;;;12.92;72.93;98885.88;5046501;28;20076;-54
2022/04/25 05:33:02;;;;;;;9.45;6.10;;;;;;;13.06;70.99;98880.72;5046905;28;20045;-54
2022/04/25 05:35:32;;;;;;;11.45;6.22;;;;;;;13.08;71.12;98891.91;5057244;28;20044;-50
2022/04/25 05:37:58;;;;;;;11.18;5.93;;;;;;;13.09;69.74;98886.59;5062787;28;20051;-52
2022/04/25 05:40:25;;;;;;;7.28;4.80;;;;;;;12.99;69.23;98901.09;5046796;28;20041;-54
2022/04/25 05:42:51;;;;;;;9.90;4.57;;;;;;;12.78;69.57;98888.41;5048258;28;20041;-51
2022/04/25 05:45:20;;;;;;;6.93;4.03;;;;;;;12.70;69.69;98891.44;5065514;28;20040;-52
2022/04/25 05:47:49;;;;;;;6.18;3.92;;;;;;;12.71;70.00;98891.38;5045872;28;20502;-56
2022/04/25 05:53:01;;;;;;;6.60;4.18;;;;;;;12.73;69.30;98896.47;5046874;28;20529;-54
2022/04/25 05:55:28;;;;;;;7.97;5.78;;;;;;;12.65;68.89;98873.44;5060638;28;20102;-53
2022/04/25 05:57:54;;;;;;;6.43;4.38;;;;;;;12.66;68.99;98896.00;5031796;28;20106;-53
2022/04/25 06:00:20;;;;;;;9.18;5.00;;;;;;;12.68;69.30;98896.75;5056288;28;20067;-52
2022/04/25 06:02:47;;;;;;;7.97;5.32;;;;;;;12.73;69.06;98893.88;5058231;28;20552;-52
2022/04/25 06:05:15;;;;;;;24.15;7.93;;;;;;;12.85;68.93;98898.41;5048853;28;20053;-50
2022/04/25 06:07:45;;;;;;;8.82;5.55;;;;;;;12.90;68.90;98900.75;5046634;28;20183;-56
2022/04/25 06:10:15;;;;;;;13.07;6.45;;;;;;;13.05;68.53;98907.72;5050252;28;20480;-51
2022/04/25 06:12:48;;;;;;;9.43;5.90;;;;;;;13.14;67.85;98897.63;5048510;28;20131;-54
2022/04/25 06:15:16;;;;;;;11.20;5.75;;;;;;;13.35;66.81;98908.59;5056283;28;20043;-50
2022/04/25 06:17:42;;;;;;;10.25;6.10;;;;;;;13.50;66.11;98886.00;5061992;28;20053;-53
2022/04/25 06:20:10;;;;;;;8.52;5.95;;;;;;;14.27;63.68;98903.97;5046439;28;20132;-54
2022/04/25 06:22:39;;;;;;;11.93;5.90;;;;;;;14.64;63.04;98898.16;5047990;28;20075;-54
2022/04/25 06:25:06;;;;;;;7.43;5.50;;;;;;;15.41;60.19;98892.22;5027769;28;20041;-54
2022/04/25 06:27:32;;;;;;;8.45;5.38;;;;;;;16.17;57.37;98896.69;5048933;28;20553;-54
2022/04/25 06:29:58;;;;;;;7.45;4.80;;;;;;;16.69;56.06;98891.25;5048893;28;20590;-56
2022/04/25 06:32:25;;;;;;;10.70;5.68;;;;;;;17.20;53.68;98892.69;5060163;28;20044;-57
2022/04/25 06:34:50;;;;;;;7.00;5.30;;;;;;;17.68;52.76;98882.13;5047764;28;20045;-54
2022/04/25 06:37:16;;;;;;;9.20;5.93;;;;;;;18.19;50.99;98883.34;5047796;28;20117;-55
2022/04/25 06:39:42;;;;;;;7.75;5.07;;;;;;;17.76;50.45;98850.81;5076277;28;20048;-56
2022/04/25 06:42:12;;;;;;;10.25;5.68;;;;;;;18.39;50.30;98865.97;5053747;28;20098;-53
2022/04/25 06:44:38;;;;;;;10.35;5.88;;;;;;;18.65;48.55;98839.41;5065397;28;20041;-63
2022/04/25 06:47:05;;;;;;;8.55;6.20;;;;;;;18.65;48.68;98849.94;5067434;28;20044;-56
2022/04/25 06:49:31;;;;;;;8.93;5.97;;;;;;;18.63;48.68;98829.81;5046888;28;20079;-59
2022/04/25 06:51:59;;;;;;;9.05;5.50;;;;;;;19.74;46.73;98852.19;5052819;28;20037;-57
2022/04/25 06:54:27;;;;;;;7.88;5.10;;;;;;;20.25;44.50;98844.22;5045809;28;20036;-57
2022/04/25 06:56:54;;;;;;;9.02;5.10;;;;;;;20.37;44.33;98844.16;5044940;28;20033;-52
2022/04/25 06:59:21;;;;;;;8.82;6.20;;;;;;;20.67;43.88;98854.66;5044894;28;20086;-55
2022/04/25 07:01:48;;;;;;;9.63;5.65;;;;;;;20.73;42.97;98851.44;5046631;28;20429;-54
2022/04/25 07:04:16;;;;;;;8.73;5.95;;;;;;;20.56;42.65;98838.94;5045542;28;20064;-54
2022/04/25 07:06:43;;;;;;;7.80;5.72;;;;;;;20.69;43.88;98850.91;5046745;28;20068;-55
2022/04/25 07:09:13;;;;;;;9.38;6.07;;;;;;;21.29;42.55;98848.19;5046685;28;20556;-53
2022/04/25 07:11:46;;;;;;;9.93;5.97;;;;;;;21.98;41.06;98840.00;5047142;28;20049;-54
2022/04/25 07:14:15;;;;;;;8.07;5.85;;;;;;;22.01;39.94;98837.03;5045034;28;20037;-57
2022/04/25 07:16:48;;;;;;;8.95;5.63;;;;;;;21.40;40.92;98848.88;5024170;28;20049;-55
2022/04/25 07:19:15;;;;;;;6.70;5.38;;;;;;;20.30;41.69;98820.09;5021790;28;20037;-56
2022/04/25 07:29:54;;;;;;;8.52;6.07;;;;;;;23.21;36.09;98849.97;5048045;28;20062;-57
2022/04/25 07:32:20;;;;;;;9.95;5.50;;;;;;;24.45;34.49;98847.78;5050131;28;20037;-57
2022/04/25 07:34:47;;;;;;;8.45;5.50;;;;;;;24.50;33.07;98828.72;5049350;28;20052;-54
2022/04/25 07:37:17;;;;;;;9.20;6.15;;;;;;;25.35;32.40;98845.31;5050351;28;20033;-55
2022/04/25 07:39:45;;;;;;;11.55;5.85;;;;;;;26.01;31.45;98850.44;5050157;28;20041;-53
2022/04/25 07:42:13;;;;;;;6.70;5.90;;;;;;;26.84;29.59;98832.91;5045632;28;20072;-56
2022/04/25 07:44:39;;;;;;;10.47;6.17;;;;;;;26.56;29.96;98827.22;5049316;28;20513;-53
2022/04/25 07:47:05;;;;;;;7.70;5.72;;;;;;;26.76;29.83;98832.09;5048366;28;20052;-52
2022/04/25 07:49:32;;;;;;;9.10;5.80;;;;;;;27.31;28.85;98832.75;5047265;28;20040;-48
2022/04/25 07:52:17;;;;;;;9.13;6.63;;;;;;;28.48;27.42;98832.03;5049575;28;20172;-56
2022/04/25 07:54:43;;;;;;;13.63;6.95;;;;;;;28.50;26.95;98813.94;5048874;28;20440;-54
2022/04/25 07:57:09;;;;;;;8.20;6.13;;;;;;;28.90;27.06;98822.44;5050787;28;20126;-53
2022/04/25 07:59:35;;;;;;;8.02;5.88;;;;;;;29.02;26.32;98820.91;5047585;28;20053;-57
2022/04/25 08:02:02;;;;;;;8.20;5.60;;;;;;;28.79;26.33;98818.41;5050408;28;20033;-56
2022/04/25 08:04:29;;;;;;;11.05;6.68;;;;;;;28.56;26.16;98823.91;5048790;28;20414;-53
2022/04/25 08:06:55;;;;;;;7.32;6.07;;;;;;;28.62;26.49;98816.97;5050256;28;20432;-54
2022/04/25 08:09:21;;;;;;;12.52;6.07;;;;;;;28.84;26.40;98828.56;5049857;28;20040;-56
2022/04/25 08:11:47;;;;;;;8.30;6.18;;;;;;;29.08;25.83;98812.13;5049702;28;20041;-55
2022/04/25 08:19:43;;;;;;;8.70;5.82;;;;;;;27.92;26.92;98812.13;5050078;28;20059;-52
2022/04/25 08:22:10;;;;;;;6.57;5.88;;;;;;;27.80;26.85;98790.38;5039435;28;20045;-55
2022/04/25 08:24:36;;;;;;;7.18;6.10;;;;;;;28.03;26.96;98795.66;5049301;28;20501;-57
2022/04/25 08:27:06;;;;;;;10.90;5.82;;;;;;;29.04;25.75;98795.63;5048013;28;20040;-55
2022/04/25 08:29:33;;;;;;;11.73;5.95;;;;;;;29.25;25.41;98792.09;5064351;28;20036;-58
2022/04/25 08:31:59;;;;;;;8.73;6.00;;;;;;;29.28;25.19;98794.38;5047702;28;20095;-58
2022/04/25 08:34:25;;;;;;;6.28;5.65;;;;;;;29.86;24.85;98779.78;5048195;28;20079;-61
2022/04/25 08:36:51;;;;;;;9.00;6.65;;;;;;;30.33;24.32;98771.97;5047840;28;20175;-59
2022/04/25 08:39:18;;;;;;;7.10;6.25;;;;;;;29.78;24.69;98784.47;5047744;28;20106;-55
2022/04/25 08:41:50;;;;;;;7.05;6.03;;;;;;;29.88;24.76;98774.22;5048575;28;20460;-56
2022/04/25 08:44:19;;;;;;;9.85;7.22;;;;;;;29.79;24.95;98767.34;5064633;28;20661;-59
2022/04/25 08:46:49;;;;;;;10.90;6.57;;;;;;;29.63;24.65;98760.44;5047949;28;20059;-39
2022/04/25 08:49:18;;;;;;;12.77;6.75;;;;;;;29.89;24.43;98762.44;5048154;28;20040;-41
2022/04/25 08:51:46;;;;;;;7.85;6.03;;;;;;;29.66;24.36;98769.97;5048002;28;20401;-43
2022/04/25 08:54:13;;;;;;;9.00;6.07;;;;;;;29.75;24.71;98756.19;5048209;28;20251;-37
2022/04/25 08:56:41;;;;;;;9.02;5.85;;;;;;;31.04;23.43;98754.41;5049137;28;20036;-39
2022/04/25 08:59:08;;;;;;;9.05;5.93;;;;;;;29.88;23.97;98731.34;5046430;28;20048;-38
2022/04/25 09:01:35;;;;;;;7.45;5.65;;;;;;;29.77;24.45;98747.97;5064926;28;20091;-48
2022/04/25 09:04:04;;;;;;;11.93;5.55;;;;;;;29.56;24.54;98742.69;5047732;28;20775;-42
2022/04/25 09:06:30;;;;;;;8.70;4.93;;;;;;;28.72;24.75;98739.94;5048203;28;20068;-39
2022/04/25 09:08:56;;;;;;;7.32;5.28;;;;;;;27.96;25.91;98746.63;5049511;28;20072;-43
2022/04/25 09:14:12;;;;;;;7.63;6.03;;;;;;;26.27;27.79;98722.28;5047911;28;20397;-48
2022/04/25 09:16:39;;;;;;;7.90;5.30;;;;;;;26.37;27.71;98745.03;5049910;28;20500;-53
2022/04/25 09:19:05;;;;;;;12.98;5.93;;;;;;;26.43;27.75;98735.50;5074406;28;20049;-66
2022/04/25 09:21:32;;;;;;;7.22;5.28;;;;;;;26.73;27.39;98736.47;5048489;28;20802;-46
2022/04/25 09:23:59;;;;;;;6.50;5.75;;;;;;;27.37;26.21;98729.75;5046903;28;20048;-48
2022/04/25 09:26:28;;;;;;;9.75;5.45;;;;;;;28.07;25.72;98729.28;5047057;28;20072;-55
2022/04/25 09:28:57;;;;;;;8.25;5.38;;;;;;;28.94;24.56;98720.16;5054457;28;20029;-51
2022/04/25 09:31:26;;;;;;;6.32;5.05;;;;;;;28.54;24.66;98718.09;5049027;28;20037;-45
2022/04/25 09:33:53;;;;;;;9.57;4.80;;;;;;;26.97;26.20;98710.44;5048672;28;20052;-56
2022/04/25 09:36:21;;;;;;;7.47;5.40;;;;;;;26.09;27.03;98711.84;5048688;28;20049;-49
2022/04/25 09:38:47;;;;;;;7.85;5.00;;;;;;;25.99;27.62;98716.56;5047261;28;20481;-48
2022/04/25 09:41:15;;;;;;;7.57;4.90;;;;;;;25.67;27.76;98701.56;5063707;28;20036;-48
2022/04/25 09:43:47;;;;;;;5.65;4.95;;;;;;;24.61;29.20;98706.16;5031269;28;20091;-45
2022/04/25 09:46:15;;;;;;;7.63;5.00;;;;;;;24.65;29.55;98719.97;5047965;28;20055;-43
2022/04/25 09:49:01;;;;;;;8.15;4.88;;;;;;;24.74;28.81;98719.78;5048130;28;20047;-41
2022/04/25 09:51:27;;;;;;;5.15;4.32;;;;;;;24.74;29.11;98711.81;5033105;28;20049;-38
2022/04/25 09:53:53;;;;;;;6.18;4.85;;;;;;;24.82;28.98;98714.47;5046161;28;20040;-39
2022/04/25 09:56:20;;;;;;;6.95;4.78;;;;;;;24.25;29.95;98710.09;5048889;28;20095;-39
2022/04/25 09:59:09;;;;;;;5.63;5.00;;;;;;;24.31;29.94;98712.94;5054276;28;20040;-40
2022/04/25 10:01:39;;;;;;;7.28;4.40;;;;;;;25.88;27.92;98703.63;5055460;28;20077;-38
2022/04/25 10:04:34;;;;;;;5.15;4.53;;;;;;;26.48;27.11;98703.81;5052016;28;20513;-39
2022/04/25 10:07:01;;;;;;;7.00;4.05;;;;;;;27.68;25.29;98708.25;5054294;28;20106;-38
2022/04/25 10:09:31;;;;;;;7.10;4.40;;;;;;;27.59;25.03;98714.66;5040909;28;20509;-40
2022/04/25 10:11:58;;;;;;;5.20;3.88;;;;;;;27.67;24.52;98719.94;5048103;28;20540;-38
2022/04/25 10:14:25;;;;;;;23.02;6.45;;;;;;;26.26;29.18;98717.97;5047758;28;20045;-40
2022/04/25 10:16:51;;;;;;;5.30;4.80;;;;;;;25.12;29.55;98707.66;5046712;28;20045;-39
2022/04/25 10:19:17;;;;;;;4.47;4.07;;;;;;;25.88;27.58;98704.47;5046220;28;20417;-39
2022/04/25 10:21:43;;;;;;;5.07;4.22;;;;;;;26.14;26.61;98701.50;5031444;28;20036;-39
2022/04/25 10:24:09;;;;;;;4.70;4.28;;;;;;;26.69;27.43;98709.34;5046353;28;20090;-45
2022/04/25 10:26:35;;;;;;;6.82;4.70;;;;;;;26.24;27.22;98696.81;5055918;28;20045;-41
2022/04/25 10:29:07;;;;;;;8.35;4.82;;;;;;;25.35;28.24;98713.09;5043908;28;20068;-39
2022/04/25 10:31:41;;;;;;;4.75;4.32;;;;;;;23.73;29.67;98699.59;5045482;28;20052;-39
2022/04/25 10:34:09;;;;;;;9.10;4.28;;;;;;;23.82;30.19;98695.97;5039286;28;20033;-41
2022/04/25 10:36:37;;;;;;;5.25;4.28;;;;;;;24.48;29.64;98706.66;5046140;28;20053;-39
2022/04/25 10:39:12;;;;;;;6.57;4.60;;;;;;;24.05;29.91;98694.41;5046920;28;20041;-39
2022/04/25 10:44:36;;;;;;;9.77;4.20;;;;;;;26.98;28.02;98674.75;5041101;28;20397;-42
2022/04/25 10:47:05;;;;;;;4.97;4.20;;;;;;;26.40;26.75;98683.38;5045970;28;20114;-41
2022/04/25 10:49:37;;;;;;;6.40;3.70;;;;;;;26.21;26.82;98688.31;5043669;28;20041;-39
2022/04/25 10:52:07;;;;;;;5.78;4.20;;;;;;;25.60;27.51;98687.25;5045592;28;20052;-38
2022/04/25 10:55:12;;;;;;;5.75;3.92;;;;;;;26.47;26.46;98683.50;5044532;28;20199;-39
2022/04/25 10:58:18;;;;;;;3.88;3.47;;;;;;;26.52;26.60;98689.13;5044258;28;20052;-39
2022/04/25 11:00:46;;;;;;;5.55;3.78;;;;;;;25.68;26.46;98680.09;5045105;28;20100;-40
2022/04/25 11:03:15;;;;;;;3.90;3.50;;;;;;;25.41;26.43;98669.84;5049867;28;20067;-39
2022/04/25 11:05:44;;;;;;;4.15;3.63;;;;;;;25.03;27.79;98674.09;5049051;28;20056;-39
2022/04/25 11:08:18;;;;;;;14.32;4.32;;;;;;;24.48;27.91;98673.94;5050085;28;20051;-40
2022/04/25 11:10:51;;;;;;;5.15;3.80;;;;;;;23.37;29.58;98682.16;5045938;28;20542;-40
2022/04/25 11:13:18;;;;;;;7.60;3.83;;;;;;;23.43;30.20;98676.22;5047131;28;20110;-39
2022/04/25 11:15:52;;;;;;;7.07;3.80;;;;;;;25.03;28.79;98681.22;5048948;28;20037;-39
2022/04/25 11:18:36;;;;;;;4.43;3.50;;;;;;;25.07;27.89;98675.41;5077661;28;20049;-38
2022/04/25 11:21:07;;;;;;;4.00;3.58;;;;;;;24.38;28.94;98681.22;5045736;28;20059;-38
2022/04/25 11:23:33;;;;;;;4.47;2.95;;;;;;;23.74;28.79;98698.63;5065639;28;20049;-39
2022/04/25 11:26:01;;;;;;;4.00;3.58;;;;;;;23.17;29.53;98679.75;5050637;28;20048;-38
2022/04/25 11:28:28;;;;;;;3.30;3.00;;;;;;;23.47;29.57;98659.84;5049836;28;20044;-39
2022/04/25 11:31:12;;;;;;;7.28;4.00;;;;;;;24.03;29.43;98679.63;5050705;28;20036;-40
2022/04/25 11:33:46;;;;;;;4.35;3.60;;;;;;;24.46;28.78;98673.25;5049904;28;20437;-40
2022/04/25 11:36:13;;;;;;;3.97;3.40;;;;;;;24.32;28.28;98681.88;5048654;28;20037;-39
2022/04/25 11:41:29;;;;;;;6.82;3.80;;;;;;;22.61;30.19;98663.41;5050944;28;20048;-38
2022/04/25 11:43:55;;;;;;;5.07;3.65;;;;;;;22.08;30.96;98653.66;5049924;28;20036;-38
2022/04/25 11:46:21;;;;;;;4.97;3.72;;;;;;;21.41;31.66;98641.59;5050173;28;20088;-46
2022/04/25 11:48:53;;;;;;;5.82;3.88;;;;;;;21.00;32.69;98671.06;5048065;28;20402;-40
2022/04/25 11:51:29;;;;;;;4.55;3.65;;;;;;;20.62;33.25;98649.03;5050282;28;20041;-40
2022/04/25 11:54:00;;;;;;;4.07;3.20;;;;;;;20.51;33.53;98662.41;5049212;28;20049;-42
2022/04/25 11:56:28;;;;;;;5.38;3.47;;;;;;;20.18;34.35;98661.00;5035595;28;20599;-46
2022/04/25 11:58:55;;;;;;;10.73;3.90;;;;;;;20.08;34.38;98649.59;5043228;28;20098;-43
2022/04/25 12:01:38;;;;;;;6.28;3.55;;;;;;;20.06;34.64;98664.72;5069774;28;20041;-41
2022/04/25 12:04:32;;;;;;;5.28;3.33;;;;;;;19.78;35.00;98652.34;5037618;28;20084;-53